sensor_id;sensor_type;location;lat;lon;timestamp;pressure;altitude;pressure_sealevel;temperature;humidity
45275;BME280;31019;43.780;25.948;2023-02-12T00:01:13;102138.59;;;-1.01;100.00
45275;BME280;31019;43.780;25.948;2023-02-12T00:03:40;102134.53;;;-1.20;100.00
45275;BME280;31019;43.780;25.948;2023-02-12T00:06:08;102141.03;;;-1.12;100.00
45275;BME280;31019;43.780;25.948;2023-02-12T00:08:36;102152.41;;;-1.13;100.00
45275;BME280;31019;43.780;25.948;2023-02-12T00:11:08;102141.06;;;-1.27;100.00
45275;BME280;31019;43.780;25.948;2023-02-12T00:13:35;102143.47;;;-1.38;100.00
45275;BME280;31019;43.780;25.948;2023-02-12T00:16:05;102131.19;;;-1.50;100.00
45275;BME280;31019;43.780;25.948;2023-02-12T00:18:32;102131.75;;;-1.59;100.00
45275;BME280;31019;43.780;25.948;2023-02-12T00:21:00;102141.22;;;-1.73;100.00
45275;BME280;31019;43.780;25.948;2023-02-12T00:23:27;102138.72;;;-1.60;100.00
45275;BME280;31019;43.780;25.948;2023-02-12T00:25:54;102124.66;;;-1.72;100.00
45275;BME280;31019;43.780;25.948;2023-02-12T00:28:21;102129.22;;;-1.75;100.00
45275;BME280;31019;43.780;25.948;2023-02-12T00:30:48;102130.56;;;-1.98;100.00
45275;BME280;31019;43.780;25.948;2023-02-12T00:33:16;102129.66;;;-2.27;100.00
45275;BME280;31019;43.780;25.948;2023-02-12T00:35:43;102131.00;;;-2.06;100.00
45275;BME280;31019;43.780;25.948;2023-02-12T00:38:10;102133.25;;;-2.00;100.00
45275;BME280;31019;43.780;25.948;2023-02-12T00:40:37;102123.44;;;-2.25;100.00
45275;BME280;31019;43.780;25.948;2023-02-12T00:43:03;102133.19;;;-2.28;100.00
45275;BME280;31019;43.780;25.948;2023-02-12T00:45:31;102133.66;;;-2.22;100.00
45275;BME280;31019;43.780;25.948;2023-02-12T00:47:57;102117.69;;;-2.46;100.00
45275;BME280;31019;43.780;25.948;2023-02-12T00:50:25;102129.44;;;-2.55;100.00
45275;BME280;31019;43.780;25.948;2023-02-12T00:52:52;102112.38;;;-2.28;100.00
45275;BME280;31019;43.780;25.948;2023-02-12T00:55:20;102127.69;;;-2.38;100.00
45275;BME280;31019;43.780;25.948;2023-02-12T00:57:46;102119.22;;;-2.58;100.00
45275;BME280;31019;43.780;25.948;2023-02-12T01:00:14;102098.25;;;-2.70;100.00
45275;BME280;31019;43.780;25.948;2023-02-12T01:02:41;102100.88;;;-2.86;100.00
45275;BME280;31019;43.780;25.948;2023-02-12T01:05:08;102096.94;;;-2.78;100.00
45275;BME280;31019;43.780;25.948;2023-02-12T01:07:36;102092.06;;;-2.84;100.00
45275;BME280;31019;43.780;25.948;2023-02-12T01:10:06;102087.88;;;-2.86;100.00
45275;BME280;31019;43.780;25.948;2023-02-12T01:12:34;102087.19;;;-2.74;100.00
45275;BME280;31019;43.780;25.948;2023-02-12T01:15:00;102079.81;;;-2.66;100.00
45275;BME280;31019;43.780;25.948;2023-02-12T01:17:27;102081.50;;;-2.81;100.00
45275;BME280;31019;43.780;25.948;2023-02-12T01:19:56;102082.16;;;-2.77;100.00
45275;BME280;31019;43.780;25.948;2023-02-12T01:22:24;102080.16;;;-2.72;100.00
45275;BME280;31019;43.780;25.948;2023-02-12T01:24:52;102085.34;;;-2.72;100.00
45275;BME280;31019;43.780;25.948;2023-02-12T01:27:19;102075.66;;;-2.84;100.00
45275;BME280;31019;43.780;25.948;2023-02-12T01:29:45;102072.75;;;-2.64;100.00
45275;BME280;31019;43.780;25.948;2023-02-12T01:32:12;102080.41;;;-2.77;100.00
45275;BME280;31019;43.780;25.948;2023-02-12T01:34:39;102079.88;;;-2.67;100.00
45275;BME280;31019;43.780;25.948;2023-02-12T01:37:05;102078.59;;;-2.44;100.00
45275;BME280;31019;43.780;25.948;2023-02-12T01:39:32;102087.97;;;-2.42;100.00
45275;BME280;31019;43.780;25.948;2023-02-12T01:42:02;102096.22;;;-2.49;100.00
45275;BME280;31019;43.780;25.948;2023-02-12T01:44:31;102109.56;;;-2.56;100.00
45275;BME280;31019;43.780;25.948;2023-02-12T01:47:00;102116.44;;;-2.55;100.00
45275;BME280;31019;43.780;25.948;2023-02-12T01:49:29;102112.00;;;-2.53;100.00
45275;BME280;31019;43.780;25.948;2023-02-12T01:51:59;102104.81;;;-2.33;100.00
45275;BME280;31019;43.780;25.948;2023-02-12T01:54:28;102115.22;;;-2.33;100.00
45275;BME280;31019;43.780;25.948;2023-02-12T01:56:56;102111.47;;;-2.43;100.00
45275;BME280;31019;43.780;25.948;2023-02-12T01:59:24;102103.78;;;-2.31;100.00
45275;BME280;31019;43.780;25.948;2023-02-12T02:01:52;102108.38;;;-2.50;100.00
45275;BME280;31019;43.780;25.948;2023-02-12T02:04:22;102107.75;;;-2.39;100.00
45275;BME280;31019;43.780;25.948;2023-02-12T02:06:53;102102.19;;;-2.47;100.00
45275;BME280;31019;43.780;25.948;2023-02-12T02:09:21;102089.94;;;-2.31;100.00
45275;BME280;31019;43.780;25.948;2023-02-12T02:11:48;102083.38;;;-2.22;100.00
45275;BME280;31019;43.780;25.948;2023-02-12T02:14:33;102086.38;;;-2.14;100.00
45275;BME280;31019;43.780;25.948;2023-02-12T02:17:16;102090.94;;;-2.03;100.00
45275;BME280;31019;43.780;25.948;2023-02-12T02:20:19;102092.97;;;-1.08;100.00
45275;BME280;31019;43.780;25.948;2023-02-12T02:22:55;102093.94;;;-1.52;100.00
45275;BME280;31019;43.780;25.948;2023-02-12T02:25:42;102099.22;;;-1.25;100.00
45275;BME280;31019;43.780;25.948;2023-02-12T02:28:30;102102.13;;;-0.88;100.00
45275;BME280;31019;43.780;25.948;2023-02-12T02:31:03;102089.13;;;-0.76;100.00
45275;BME280;31019;43.780;25.948;2023-02-12T02:33:36;102076.75;;;-0.72;100.00
45275;BME280;31019;43.780;25.948;2023-02-12T02:36:14;102092.38;;;-0.45;100.00
45275;BME280;31019;43.780;25.948;2023-02-12T02:38:50;102088.16;;;-0.60;100.00
45275;BME280;31019;43.780;25.948;2023-02-12T02:41:25;102091.53;;;-0.46;100.00
45275;BME280;31019;43.780;25.948;2023-02-12T02:43:54;102095.59;;;-0.54;100.00
45275;BME280;31019;43.780;25.948;2023-02-12T02:46:28;102092.03;;;-0.53;100.00
45275;BME280;31019;43.780;25.948;2023-02-12T02:48:59;102090.03;;;-0.62;100.00
45275;BME280;31019;43.780;25.948;2023-02-12T02:51:30;102084.56;;;-0.45;100.00
45275;BME280;31019;43.780;25.948;2023-02-12T02:54:03;102097.03;;;-0.63;100.00
45275;BME280;31019;43.780;25.948;2023-02-12T02:56:31;102107.16;;;-0.58;100.00
45275;BME280;31019;43.780;25.948;2023-02-12T02:59:01;102111.28;;;-0.41;100.00
45275;BME280;31019;43.780;25.948;2023-02-12T03:01:33;102102.50;;;-0.40;100.00
45275;BME280;31019;43.780;25.948;2023-02-12T03:04:04;102098.41;;;-0.05;100.00
45275;BME280;31019;43.780;25.948;2023-02-12T03:06:35;102102.66;;;-0.29;100.00
45275;BME280;31019;43.780;25.948;2023-02-12T03:09:08;102115.91;;;-0.32;100.00
45275;BME280;31019;43.780;25.948;2023-02-12T03:11:39;102112.63;;;0.30;100.00
45275;BME280;31019;43.780;25.948;2023-02-12T03:14:10;102115.91;;;-0.32;100.00
45275;BME280;31019;43.780;25.948;2023-02-12T03:16:45;102131.22;;;-0.40;100.00
45275;BME280;31019;43.780;25.948;2023-02-12T03:19:15;102136.22;;;-0.50;100.00
45275;BME280;31019;43.780;25.948;2023-02-12T03:21:47;102127.31;;;-0.33;100.00
45275;BME280;31019;43.780;25.948;2023-02-12T03:24:19;102140.44;;;-0.35;100.00
45275;BME280;31019;43.780;25.948;2023-02-12T03:26:50;102133.41;;;-0.47;100.00
45275;BME280;31019;43.780;25.948;2023-02-12T03:29:19;102134.78;;;-0.41;100.00
45275;BME280;31019;43.780;25.948;2023-02-12T03:31:57;102126.28;;;-0.18;100.00
45275;BME280;31019;43.780;25.948;2023-02-12T03:34:30;102135.78;;;-0.57;100.00
45275;BME280;31019;43.780;25.948;2023-02-12T03:37:02;102140.19;;;-0.57;100.00
45275;BME280;31019;43.780;25.948;2023-02-12T03:39:34;102142.50;;;-0.67;100.00
45275;BME280;31019;43.780;25.948;2023-02-12T03:42:07;102141.53;;;-0.52;100.00
45275;BME280;31019;43.780;25.948;2023-02-12T03:44:45;102134.03;;;-0.43;100.00
45275;BME280;31019;43.780;25.948;2023-02-12T03:47:20;102138.91;;;-0.52;100.00
45275;BME280;31019;43.780;25.948;2023-02-12T03:49:54;102134.63;;;-0.53;100.00
45275;BME280;31019;43.780;25.948;2023-02-12T03:52:24;102135.97;;;-0.60;100.00
45275;BME280;31019;43.780;25.948;2023-02-12T03:54:51;102141.41;;;-0.63;100.00
45275;BME280;31019;43.780;25.948;2023-02-12T03:57:19;102131.88;;;-0.64;100.00
45275;BME280;31019;43.780;25.948;2023-02-12T03:59:48;102141.69;;;-0.67;100.00
45275;BME280;31019;43.780;25.948;2023-02-12T04:02:17;102140.22;;;-0.72;100.00
45275;BME280;31019;43.780;25.948;2023-02-12T04:04:45;102138.47;;;-0.58;100.00
45275;BME280;31019;43.780;25.948;2023-02-12T04:07:13;102147.09;;;-0.71;100.00
45275;BME280;31019;43.780;25.948;2023-02-12T04:09:40;102150.25;;;-0.65;100.00
45275;BME280;31019;43.780;25.948;2023-02-12T04:15:09;102159.31;;;-0.71;100.00
45275;BME280;31019;43.780;25.948;2023-02-12T04:17:49;102156.97;;;-0.76;100.00
45275;BME280;31019;43.780;25.948;2023-02-12T04:20:23;102154.09;;;-0.71;100.00
45275;BME280;31019;43.780;25.948;2023-02-12T04:22:58;102162.03;;;-0.73;100.00
45275;BME280;31019;43.780;25.948;2023-02-12T04:25:42;102166.13;;;-0.83;100.00
45275;BME280;31019;43.780;25.948;2023-02-12T04:28:16;102152.53;;;-0.88;100.00
45275;BME280;31019;43.780;25.948;2023-02-12T04:30:54;102166.31;;;-0.86;100.00
45275;BME280;31019;43.780;25.948;2023-02-12T04:33:25;102166.72;;;-0.92;100.00
45275;BME280;31019;43.780;25.948;2023-02-12T04:35:59;102181.78;;;-0.68;100.00
45275;BME280;31019;43.780;25.948;2023-02-12T04:38:31;102176.19;;;-0.77;100.00
45275;BME280;31019;43.780;25.948;2023-02-12T04:41:02;102183.25;;;-0.79;100.00
45275;BME280;31019;43.780;25.948;2023-02-12T04:43:32;102177.22;;;-0.79;100.00
45275;BME280;31019;43.780;25.948;2023-02-12T04:46:00;102169.38;;;-0.79;100.00
45275;BME280;31019;43.780;25.948;2023-02-12T04:48:28;102170.97;;;-0.77;100.00
45275;BME280;31019;43.780;25.948;2023-02-12T04:50:55;102154.41;;;-0.90;100.00
45275;BME280;31019;43.780;25.948;2023-02-12T04:53:22;102165.09;;;-0.80;100.00
45275;BME280;31019;43.780;25.948;2023-02-12T04:55:48;102167.34;;;-0.88;100.00
45275;BME280;31019;43.780;25.948;2023-02-12T04:58:16;102162.78;;;-0.85;100.00
45275;BME280;31019;43.780;25.948;2023-02-12T05:00:43;102168.84;;;-0.84;100.00
45275;BME280;31019;43.780;25.948;2023-02-12T05:03:10;102162.50;;;-0.80;100.00
45275;BME280;31019;43.780;25.948;2023-02-12T05:05:38;102167.91;;;-0.83;100.00
45275;BME280;31019;43.780;25.948;2023-02-12T05:08:05;102177.06;;;-0.90;100.00
45275;BME280;31019;43.780;25.948;2023-02-12T05:10:31;102184.78;;;-0.89;100.00
45275;BME280;31019;43.780;25.948;2023-02-12T05:13:00;102186.09;;;-0.96;100.00
45275;BME280;31019;43.780;25.948;2023-02-12T05:15:27;102189.06;;;-0.88;100.00
45275;BME280;31019;43.780;25.948;2023-02-12T05:17:54;102194.94;;;-0.84;100.00
45275;BME280;31019;43.780;25.948;2023-02-12T05:20:21;102201.19;;;-0.87;100.00
45275;BME280;31019;43.780;25.948;2023-02-12T05:22:51;102199.59;;;-1.04;100.00
45275;BME280;31019;43.780;25.948;2023-02-12T05:25:18;102207.88;;;-0.83;100.00
45275;BME280;31019;43.780;25.948;2023-02-12T05:27:45;102198.31;;;-1.11;100.00
45275;BME280;31019;43.780;25.948;2023-02-12T05:30:12;102212.19;;;-0.96;100.00
45275;BME280;31019;43.780;25.948;2023-02-12T05:32:39;102221.13;;;-1.00;100.00
45275;BME280;31019;43.780;25.948;2023-02-12T05:35:06;102225.50;;;-1.01;100.00
45275;BME280;31019;43.780;25.948;2023-02-12T05:37:33;102239.28;;;-0.99;100.00
45275;BME280;31019;43.780;25.948;2023-02-12T05:40:02;102244.41;;;-0.97;100.00
45275;BME280;31019;43.780;25.948;2023-02-12T05:42:29;102245.16;;;-0.95;100.00
45275;BME280;31019;43.780;25.948;2023-02-12T05:44:56;102248.97;;;-1.01;100.00
45275;BME280;31019;43.780;25.948;2023-02-12T05:47:23;102254.47;;;-0.91;100.00
45275;BME280;31019;43.780;25.948;2023-02-12T05:49:49;102255.88;;;-1.00;100.00
45275;BME280;31019;43.780;25.948;2023-02-12T05:52:16;102257.06;;;-1.20;100.00
45275;BME280;31019;43.780;25.948;2023-02-12T05:54:43;102270.88;;;-1.18;100.00
45275;BME280;31019;43.780;25.948;2023-02-12T05:57:11;102271.59;;;-1.16;100.00
45275;BME280;31019;43.780;25.948;2023-02-12T05:59:38;102266.19;;;-1.27;100.00
45275;BME280;31019;43.780;25.948;2023-02-12T06:02:05;102277.56;;;-1.13;100.00
45275;BME280;31019;43.780;25.948;2023-02-12T06:04:31;102280.16;;;-1.13;100.00
45275;BME280;31019;43.780;25.948;2023-02-12T06:06:59;102286.03;;;-1.10;100.00
45275;BME280;31019;43.780;25.948;2023-02-12T06:09:26;102297.69;;;-1.01;100.00
45275;BME280;31019;43.780;25.948;2023-02-12T06:11:53;102288.38;;;-1.20;100.00
45275;BME280;31019;43.780;25.948;2023-02-12T06:14:21;102296.66;;;-1.13;100.00
45275;BME280;31019;43.780;25.948;2023-02-12T06:16:49;102292.78;;;-1.06;100.00
45275;BME280;31019;43.780;25.948;2023-02-12T06:19:17;102279.81;;;-1.07;100.00
45275;BME280;31019;43.780;25.948;2023-02-12T06:21:44;102285.66;;;-1.04;100.00
45275;BME280;31019;43.780;25.948;2023-02-12T06:24:12;102292.69;;;-0.90;100.00
45275;BME280;31019;43.780;25.948;2023-02-12T06:26:39;102291.19;;;-1.08;100.00
45275;BME280;31019;43.780;25.948;2023-02-12T06:29:06;102300.66;;;-1.07;100.00
45275;BME280;31019;43.780;25.948;2023-02-12T06:31:34;102303.66;;;-0.99;100.00
45275;BME280;31019;43.780;25.948;2023-02-12T06:34:03;102306.25;;;-0.85;100.00
45275;BME280;31019;43.780;25.948;2023-02-12T06:36:31;102317.72;;;-0.73;100.00
45275;BME280;31019;43.780;25.948;2023-02-12T06:39:00;102324.16;;;-0.64;100.00
45275;BME280;31019;43.780;25.948;2023-02-12T06:41:27;102336.50;;;-0.66;100.00
45275;BME280;31019;43.780;25.948;2023-02-12T06:43:54;102334.34;;;-0.60;100.00
45275;BME280;31019;43.780;25.948;2023-02-12T06:46:21;102332.84;;;-0.78;100.00
45275;BME280;31019;43.780;25.948;2023-02-12T06:48:53;102329.47;;;-0.52;100.00
45275;BME280;31019;43.780;25.948;2023-02-12T06:51:20;102333.19;;;-0.70;100.00
45275;BME280;31019;43.780;25.948;2023-02-12T06:53:48;102334.78;;;-0.82;100.00
45275;BME280;31019;43.780;25.948;2023-02-12T06:56:15;102342.72;;;-0.69;100.00
45275;BME280;31019;43.780;25.948;2023-02-12T06:58:44;102343.00;;;-0.59;100.00
45275;BME280;31019;43.780;25.948;2023-02-12T07:01:13;102335.44;;;-0.64;100.00
45275;BME280;31019;43.780;25.948;2023-02-12T07:03:42;102357.72;;;-0.30;100.00
45275;BME280;31019;43.780;25.948;2023-02-12T07:06:11;102350.47;;;-0.39;100.00
45275;BME280;31019;43.780;25.948;2023-02-12T07:08:37;102348.47;;;-0.21;100.00
45275;BME280;31019;43.780;25.948;2023-02-12T07:11:05;102342.88;;;-0.29;100.00
45275;BME280;31019;43.780;25.948;2023-02-12T07:13:32;102345.00;;;-0.21;100.00
45275;BME280;31019;43.780;25.948;2023-02-12T07:16:02;102343.78;;;-0.16;100.00
45275;BME280;31019;43.780;25.948;2023-02-12T07:18:30;102345.38;;;-0.13;100.00
45275;BME280;31019;43.780;25.948;2023-02-12T07:20:56;102337.91;;;-0.19;100.00
45275;BME280;31019;43.780;25.948;2023-02-12T07:23:25;102341.94;;;-0.28;100.00
45275;BME280;31019;43.780;25.948;2023-02-12T07:25:55;102351.22;;;0.05;100.00
45275;BME280;31019;43.780;25.948;2023-02-12T07:28:22;102346.16;;;0.16;100.00
45275;BME280;31019;43.780;25.948;2023-02-12T07:30:49;102351.13;;;0.06;100.00
45275;BME280;31019;43.780;25.948;2023-02-12T07:33:15;102344.41;;;0.02;100.00
45275;BME280;31019;43.780;25.948;2023-02-12T07:35:42;102352.47;;;0.12;100.00
45275;BME280;31019;43.780;25.948;2023-02-12T07:38:09;102352.84;;;0.20;100.00
45275;BME280;31019;43.780;25.948;2023-02-12T07:40:37;102357.03;;;0.22;100.00
45275;BME280;31019;43.780;25.948;2023-02-12T07:43:04;102355.66;;;0.17;100.00
45275;BME280;31019;43.780;25.948;2023-02-12T07:45:31;102360.09;;;0.29;100.00
45275;BME280;31019;43.780;25.948;2023-02-12T07:47:57;102364.25;;;0.46;100.00
45275;BME280;31019;43.780;25.948;2023-02-12T07:50:24;102359.22;;;0.43;100.00
45275;BME280;31019;43.780;25.948;2023-02-12T07:52:51;102370.50;;;0.43;100.00
45275;BME280;31019;43.780;25.948;2023-02-12T07:55:18;102373.88;;;0.45;100.00
45275;BME280;31019;43.780;25.948;2023-02-12T07:57:46;102376.47;;;0.45;100.00
45275;BME280;31019;43.780;25.948;2023-02-12T08:00:14;102374.69;;;0.73;100.00
45275;BME280;31019;43.780;25.948;2023-02-12T08:02:41;102375.50;;;0.34;100.00
45275;BME280;31019;43.780;25.948;2023-02-12T08:05:07;102381.56;;;0.34;100.00
45275;BME280;31019;43.780;25.948;2023-02-12T08:07:34;102387.09;;;0.69;100.00
45275;BME280;31019;43.780;25.948;2023-02-12T08:10:02;102391.25;;;0.59;100.00
45275;BME280;31019;43.780;25.948;2023-02-12T08:12:28;102398.84;;;0.77;100.00
45275;BME280;31019;43.780;25.948;2023-02-12T08:14:57;102394.50;;;0.63;100.00
45275;BME280;31019;43.780;25.948;2023-02-12T08:17:23;102400.91;;;0.72;100.00
45275;BME280;31019;43.780;25.948;2023-02-12T08:19:50;102407.44;;;0.79;100.00
45275;BME280;31019;43.780;25.948;2023-02-12T08:22:17;102405.72;;;0.65;100.00
45275;BME280;31019;43.780;25.948;2023-02-12T08:24:44;102410.44;;;0.73;100.00
45275;BME280;31019;43.780;25.948;2023-02-12T08:27:10;102412.06;;;0.88;100.00
45275;BME280;31019;43.780;25.948;2023-02-12T08:29:37;102426.91;;;0.87;100.00
45275;BME280;31019;43.780;25.948;2023-02-12T08:32:05;102428.41;;;0.91;100.00
45275;BME280;31019;43.780;25.948;2023-02-12T08:34:34;102432.41;;;0.97;100.00
45275;BME280;31019;43.780;25.948;2023-02-12T08:37:03;102440.34;;;0.68;100.00
45275;BME280;31019;43.780;25.948;2023-02-12T08:39:30;102436.47;;;1.01;100.00
45275;BME280;31019;43.780;25.948;2023-02-12T08:41:58;102438.91;;;1.17;100.00
45275;BME280;31019;43.780;25.948;2023-02-12T08:44:25;102437.06;;;0.92;100.00
45275;BME280;31019;43.780;25.948;2023-02-12T08:46:52;102454.00;;;0.86;100.00
45275;BME280;31019;43.780;25.948;2023-02-12T08:49:23;102459.34;;;1.25;100.00
45275;BME280;31019;43.780;25.948;2023-02-12T08:51:52;102455.69;;;1.27;100.00
45275;BME280;31019;43.780;25.948;2023-02-12T08:54:21;102457.03;;;1.20;100.00
45275;BME280;31019;43.780;25.948;2023-02-12T08:56:48;102463.84;;;0.83;100.00
45275;BME280;31019;43.780;25.948;2023-02-12T08:59:16;102476.09;;;1.22;100.00
45275;BME280;31019;43.780;25.948;2023-02-12T09:01:43;102480.38;;;1.23;100.00
45275;BME280;31019;43.780;25.948;2023-02-12T09:04:13;102480.09;;;1.41;100.00
45275;BME280;31019;43.780;25.948;2023-02-12T09:06:44;102487.22;;;1.38;100.00
45275;BME280;31019;43.780;25.948;2023-02-12T09:09:11;102483.66;;;1.40;100.00
45275;BME280;31019;43.780;25.948;2023-02-12T09:11:39;102487.25;;;1.11;100.00
45275;BME280;31019;43.780;25.948;2023-02-12T09:14:07;102474.19;;;0.84;100.00
45275;BME280;31019;43.780;25.948;2023-02-12T09:16:35;102487.66;;;1.05;100.00
45275;BME280;31019;43.780;25.948;2023-02-12T09:19:02;102478.19;;;0.90;100.00
45275;BME280;31019;43.780;25.948;2023-02-12T09:21:29;102490.56;;;1.28;100.00
45275;BME280;31019;43.780;25.948;2023-02-12T09:23:57;102490.69;;;1.65;100.00
45275;BME280;31019;43.780;25.948;2023-02-12T09:26:24;102494.22;;;1.38;100.00
45275;BME280;31019;43.780;25.948;2023-02-12T09:28:52;102493.88;;;1.30;100.00
45275;BME280;31019;43.780;25.948;2023-02-12T09:31:21;102498.84;;;1.47;100.00
45275;BME280;31019;43.780;25.948;2023-02-12T09:33:51;102500.00;;;1.56;100.00
45275;BME280;31019;43.780;25.948;2023-02-12T09:36:18;102490.88;;;1.36;100.00
45275;BME280;31019;43.780;25.948;2023-02-12T09:38:45;102491.94;;;1.46;100.00
45275;BME280;31019;43.780;25.948;2023-02-12T09:41:45;102493.59;;;1.47;100.00
45275;BME280;31019;43.780;25.948;2023-02-12T09:44:21;102492.66;;;1.48;100.00
45275;BME280;31019;43.780;25.948;2023-02-12T09:46:54;102489.53;;;1.56;100.00
45275;BME280;31019;43.780;25.948;2023-02-12T09:49:36;102496.03;;;2.01;100.00
45275;BME280;31019;43.780;25.948;2023-02-12T09:52:12;102498.56;;;1.65;100.00
45275;BME280;31019;43.780;25.948;2023-02-12T09:54:41;102500.56;;;1.74;100.00
45275;BME280;31019;43.780;25.948;2023-02-12T09:57:16;102511.19;;;1.32;100.00
45275;BME280;31019;43.780;25.948;2023-02-12T09:59:46;102509.09;;;1.25;100.00
45275;BME280;31019;43.780;25.948;2023-02-12T10:02:16;102506.81;;;1.46;100.00
45275;BME280;31019;43.780;25.948;2023-02-12T10:04:44;102508.00;;;1.54;100.00
45275;BME280;31019;43.780;25.948;2023-02-12T10:07:19;102509.44;;;1.71;100.00
45275;BME280;31019;43.780;25.948;2023-02-12T10:10:04;102513.44;;;1.64;100.00
45275;BME280;31019;43.780;25.948;2023-02-12T10:12:40;102509.44;;;1.46;100.00
45275;BME280;31019;43.780;25.948;2023-02-12T10:15:16;102512.91;;;1.46;100.00
45275;BME280;31019;43.780;25.948;2023-02-12T10:17:48;102515.72;;;1.69;100.00
45275;BME280;31019;43.780;25.948;2023-02-12T10:20:35;102516.81;;;1.79;100.00
45275;BME280;31019;43.780;25.948;2023-02-12T10:23:26;102513.44;;;1.64;100.00
45275;BME280;31019;43.780;25.948;2023-02-12T10:26:00;102511.09;;;1.47;100.00
45275;BME280;31019;43.780;25.948;2023-02-12T10:28:33;102514.47;;;1.74;100.00
45275;BME280;31019;43.780;25.948;2023-02-12T10:31:03;102525.34;;;1.43;100.00
45275;BME280;31019;43.780;25.948;2023-02-12T10:33:34;102522.53;;;1.46;100.00
45275;BME280;31019;43.780;25.948;2023-02-12T10:36:13;102526.75;;;1.74;100.00
45275;BME280;31019;43.780;25.948;2023-02-12T10:38:46;102524.19;;;1.34;100.00
45275;BME280;31019;43.780;25.948;2023-02-12T10:41:15;102526.06;;;1.45;100.00
45275;BME280;31019;43.780;25.948;2023-02-12T10:43:44;102521.38;;;1.63;100.00
45275;BME280;31019;43.780;25.948;2023-02-12T10:46:12;102531.34;;;1.57;100.00
45275;BME280;31019;43.780;25.948;2023-02-12T10:48:41;102525.16;;;1.58;100.00
45275;BME280;31019;43.780;25.948;2023-02-12T10:51:35;102526.28;;;1.42;100.00
45275;BME280;31019;43.780;25.948;2023-02-12T10:54:30;102535.22;;;1.52;100.00
45275;BME280;31019;43.780;25.948;2023-02-12T10:56:57;102539.72;;;1.75;100.00
45275;BME280;31019;43.780;25.948;2023-02-12T10:59:28;102525.78;;;1.49;100.00
45275;BME280;31019;43.780;25.948;2023-02-12T11:01:54;102534.81;;;1.96;100.00
45275;BME280;31019;43.780;25.948;2023-02-12T11:04:26;102546.13;;;1.71;100.00
45275;BME280;31019;43.780;25.948;2023-02-12T11:06:58;102551.16;;;1.87;100.00
45275;BME280;31019;43.780;25.948;2023-02-12T11:09:27;102554.63;;;1.75;100.00
45275;BME280;31019;43.780;25.948;2023-02-12T11:11:55;102550.13;;;1.77;100.00
45275;BME280;31019;43.780;25.948;2023-02-12T11:14:22;102557.22;;;1.62;100.00
45275;BME280;31019;43.780;25.948;2023-02-12T11:16:55;102558.88;;;1.63;100.00
45275;BME280;31019;43.780;25.948;2023-02-12T11:19:24;102563.56;;;1.98;100.00
45275;BME280;31019;43.780;25.948;2023-02-12T11:21:51;102563.63;;;1.96;100.00
45275;BME280;31019;43.780;25.948;2023-02-12T11:24:31;102566.03;;;1.74;100.00
45275;BME280;31019;43.780;25.948;2023-02-12T11:27:21;102558.81;;;1.77;100.00
45275;BME280;31019;43.780;25.948;2023-02-12T11:30:11;102564.69;;;1.81;100.00
45275;BME280;31019;43.780;25.948;2023-02-12T11:32:40;102562.69;;;1.72;100.00
45275;BME280;31019;43.780;25.948;2023-02-12T11:35:13;102564.81;;;1.92;100.00
45275;BME280;31019;43.780;25.948;2023-02-12T11:37:43;102551.28;;;1.98;100.00
45275;BME280;31019;43.780;25.948;2023-02-12T11:40:19;102562.91;;;2.20;100.00
45275;BME280;31019;43.780;25.948;2023-02-12T11:42:49;102560.06;;;2.36;100.00
45275;BME280;31019;43.780;25.948;2023-02-12T11:45:19;102555.22;;;2.55;100.00
45275;BME280;31019;43.780;25.948;2023-02-12T11:47:49;102550.28;;;2.50;100.00
45275;BME280;31019;43.780;25.948;2023-02-12T11:50:23;102551.47;;;2.21;100.00
45275;BME280;31019;43.780;25.948;2023-02-12T11:52:52;102561.22;;;2.32;100.00
45275;BME280;31019;43.780;25.948;2023-02-12T11:55:22;102565.00;;;2.40;100.00
45275;BME280;31019;43.780;25.948;2023-02-12T11:57:51;102557.44;;;2.85;100.00
45275;BME280;31019;43.780;25.948;2023-02-12T12:00:22;102564.00;;;2.67;100.00
45275;BME280;31019;43.780;25.948;2023-02-12T12:02:57;102549.56;;;2.48;100.00
45275;BME280;31019;43.780;25.948;2023-02-12T12:05:30;102560.44;;;2.55;100.00
45275;BME280;31019;43.780;25.948;2023-02-12T12:08:01;102563.91;;;2.56;100.00
45275;BME280;31019;43.780;25.948;2023-02-12T12:10:34;102560.31;;;2.93;100.00
45275;BME280;31019;43.780;25.948;2023-02-12T12:13:05;102563.94;;;2.80;100.00
45275;BME280;31019;43.780;25.948;2023-02-12T12:15:37;102540.94;;;3.07;100.00
45275;BME280;31019;43.780;25.948;2023-02-12T12:18:30;102550.78;;;2.92;100.00
45275;BME280;31019;43.780;25.948;2023-02-12T12:21:19;102546.34;;;2.93;100.00
45275;BME280;31019;43.780;25.948;2023-02-12T12:23:52;102555.28;;;2.90;100.00
45275;BME280;31019;43.780;25.948;2023-02-12T12:26:23;102555.09;;;2.57;100.00
45275;BME280;31019;43.780;25.948;2023-02-12T12:28:56;102552.22;;;2.96;100.00
45275;BME280;31019;43.780;25.948;2023-02-12T12:31:27;102553.00;;;2.86;100.00
45275;BME280;31019;43.780;25.948;2023-02-12T12:34:02;102541.72;;;2.96;100.00
45275;BME280;31019;43.780;25.948;2023-02-12T12:37:03;102560.75;;;2.63;100.00
45275;BME280;31019;43.780;25.948;2023-02-12T12:39:35;102570.72;;;2.95;100.00
45275;BME280;31019;43.780;25.948;2023-02-12T12:44:57;102562.38;;;2.77;100.00
45275;BME280;31019;43.780;25.948;2023-02-12T12:47:33;102558.66;;;2.92;100.00
45275;BME280;31019;43.780;25.948;2023-02-12T12:50:24;102564.47;;;2.85;100.00
45275;BME280;31019;43.780;25.948;2023-02-12T12:53:13;102568.72;;;2.98;100.00
45275;BME280;31019;43.780;25.948;2023-02-12T12:55:57;102567.72;;;2.88;100.00
45275;BME280;31019;43.780;25.948;2023-02-12T12:58:39;102572.59;;;2.93;100.00